createdAt,value
2017-09-14T00:01:22.288Z,21.10
2017-09-14T00:03:56.751Z,21.10
2017-09-14T00:06:31.449Z,21.10
2017-09-14T00:09:06.138Z,21.10
2017-09-14T00:11:39.738Z,21.10
2017-09-14T00:14:13.412Z,21.10
2017-09-14T00:16:47.194Z,21.10
2017-09-14T00:19:20.844Z,21.10
2017-09-14T00:21:54.552Z,21.10
2017-09-14T00:24:28.425Z,21.10
2017-09-14T00:27:02.803Z,21.10
2017-09-14T00:29:37.332Z,21.10
2017-09-14T00:32:11.171Z,21.10
2017-09-14T00:34:44.720Z,21.10
2017-09-14T00:37:18.369Z,21.10
2017-09-14T00:39:52.012Z,21.10
2017-09-14T00:42:25.830Z,21.10
2017-09-14T00:44:59.480Z,21.10
2017-09-14T00:47:33.117Z,21.10
2017-09-14T00:50:06.649Z,21.10
2017-09-14T00:52:40.108Z,21.10
2017-09-14T00:55:14.328Z,21.10
2017-09-14T00:57:48.201Z,21.10
2017-09-14T01:00:22.852Z,21.10
2017-09-14T01:02:56.783Z,21.10
2017-09-14T01:05:30.484Z,21.10
2017-09-14T01:08:04.013Z,21.10
2017-09-14T01:10:37.724Z,21.10
2017-09-14T01:13:11.565Z,21.10
2017-09-14T01:15:45.141Z,21.10
2017-09-14T01:18:18.639Z,21.10
2017-09-14T01:20:52.337Z,21.10
2017-09-14T01:23:26.182Z,21.10
2017-09-14T01:26:00.396Z,21.00
2017-09-14T01:28:35.043Z,21.00
2017-09-14T01:31:09.052Z,21.10
2017-09-14T01:33:42.635Z,21.00
2017-09-14T01:36:16.403Z,21.00
2017-09-14T01:38:50.041Z,21.00
2017-09-14T01:41:24.504Z,21.10
2017-09-14T01:43:58.422Z,21.00
2017-09-14T01:46:32.233Z,21.10
2017-09-14T01:49:06.413Z,21.10
2017-09-14T01:51:40.228Z,21.00
2017-09-14T01:54:13.704Z,21.00
2017-09-14T01:56:47.252Z,21.00
2017-09-14T01:59:21.729Z,21.10
2017-09-14T02:01:55.596Z,21.00
2017-09-14T02:04:29.863Z,21.10
2017-09-14T02:07:03.953Z,21.10
2017-09-14T02:09:38.189Z,21.00
2017-09-14T02:12:12.784Z,21.10
2017-09-14T02:14:47.443Z,21.00
2017-09-14T02:17:21.476Z,21.00
2017-09-14T02:19:55.288Z,21.00
2017-09-14T02:22:29.578Z,21.00
2017-09-14T02:25:04.077Z,21.00
2017-09-14T02:27:38.036Z,21.00
2017-09-14T02:30:11.785Z,21.00
2017-09-14T02:32:45.414Z,20.90
2017-09-14T02:35:18.982Z,21.00
2017-09-14T02:37:52.541Z,21.00
2017-09-14T02:40:26.256Z,21.00
2017-09-14T02:42:59.780Z,21.00
2017-09-14T02:45:33.544Z,20.90
2017-09-14T02:48:07.265Z,20.90
2017-09-14T02:50:41.537Z,20.90
2017-09-14T02:53:16.255Z,20.90
2017-09-14T02:55:50.344Z,20.90
2017-09-14T02:58:23.891Z,20.90
2017-09-14T03:00:57.477Z,20.90
2017-09-14T03:03:30.997Z,20.90
2017-09-14T03:06:04.453Z,20.90
2017-09-14T03:08:38.692Z,20.90
2017-09-14T03:11:12.529Z,20.90
2017-09-14T03:13:45.954Z,20.90
2017-09-14T03:16:19.468Z,20.90
2017-09-14T03:18:53.103Z,20.90
2017-09-14T03:21:26.692Z,20.90
2017-09-14T03:24:00.273Z,20.90
2017-09-14T03:26:33.913Z,21.00
2017-09-14T03:29:07.644Z,21.00
2017-09-14T03:31:41.899Z,21.00
2017-09-14T03:34:16.529Z,20.90
2017-09-14T03:36:51.228Z,20.90
2017-09-14T03:39:26.054Z,20.90
2017-09-14T03:41:59.873Z,20.90
2017-09-14T03:44:33.381Z,20.90
2017-09-14T03:47:06.812Z,20.90
2017-09-14T03:49:40.361Z,20.90
2017-09-14T03:52:14.064Z,20.90
2017-09-14T03:54:48.388Z,20.90
2017-09-14T03:57:22.324Z,20.90
2017-09-14T03:59:56.812Z,20.90
2017-09-14T04:02:30.749Z,20.90
2017-09-14T04:05:05.149Z,20.90
2017-09-14T04:07:39.004Z,20.90
2017-09-14T04:10:12.737Z,20.90
2017-09-14T04:12:46.873Z,20.90
2017-09-14T04:15:21.302Z,20.90
2017-09-14T04:17:55.114Z,20.90
2017-09-14T04:20:28.741Z,20.90
2017-09-14T04:23:02.456Z,20.90
2017-09-14T04:25:36.950Z,20.90
2017-09-14T04:28:10.905Z,20.90
2017-09-14T04:30:44.585Z,20.90
2017-09-14T04:33:18.282Z,20.90
2017-09-14T04:35:53.089Z,20.90
2017-09-14T04:38:26.925Z,20.90
2017-09-14T04:41:01.196Z,20.90
2017-09-14T04:43:34.989Z,20.90
2017-09-14T04:46:08.564Z,20.90
2017-09-14T04:48:42.466Z,20.90
2017-09-14T04:51:16.047Z,20.90
2017-09-14T04:53:49.854Z,20.90
2017-09-14T04:56:23.864Z,20.90
2017-09-14T04:58:58.360Z,20.80
2017-09-14T05:01:32.357Z,20.80
2017-09-14T05:04:06.072Z,20.80
2017-09-14T05:06:40.477Z,20.80
2017-09-14T05:09:14.504Z,20.80
2017-09-14T05:11:48.997Z,20.80
2017-09-14T05:14:22.860Z,20.80
2017-09-14T05:16:56.591Z,20.80
2017-09-14T05:19:30.147Z,20.80
2017-09-14T05:22:03.813Z,20.80
2017-09-14T05:24:38.056Z,20.80
2017-09-14T05:27:11.917Z,20.80
2017-09-14T05:29:46.870Z,20.80
2017-09-14T05:32:21.400Z,20.80
2017-09-14T05:34:55.326Z,20.80
2017-09-14T05:37:28.974Z,20.80
2017-09-14T05:40:02.689Z,20.80
2017-09-14T05:42:36.428Z,20.80
2017-09-14T05:45:10.933Z,20.80
2017-09-14T05:47:44.945Z,20.80
2017-09-14T05:50:18.616Z,20.80
2017-09-14T05:52:52.088Z,20.80
2017-09-14T05:55:25.856Z,20.80
2017-09-14T05:57:59.589Z,20.80
2017-09-14T06:00:34.368Z,20.80
2017-09-14T06:03:08.336Z,20.80
2017-09-14T06:05:42.877Z,20.80
2017-09-14T06:08:16.854Z,20.80
2017-09-14T06:10:50.409Z,20.80
2017-09-14T06:13:23.856Z,20.80
2017-09-14T06:15:58.256Z,20.80
2017-09-14T06:18:32.426Z,20.80
2017-09-14T06:21:06.569Z,20.80
2017-09-14T06:23:40.494Z,20.80
2017-09-14T06:26:14.049Z,20.80
2017-09-14T06:28:48.396Z,20.80
2017-09-14T06:31:22.545Z,20.80
2017-09-14T06:33:57.021Z,20.80
2017-09-14T06:36:30.892Z,20.80
2017-09-14T06:39:04.604Z,20.80
2017-09-14T06:41:38.180Z,20.80
2017-09-14T06:44:12.001Z,20.80
2017-09-14T06:46:45.724Z,20.90
2017-09-14T06:49:19.314Z,20.90
2017-09-14T06:51:53.093Z,20.90
2017-09-14T06:54:26.780Z,20.90
2017-09-14T06:57:00.494Z,20.80
2017-09-14T06:59:34.242Z,20.80
2017-09-14T07:02:07.724Z,20.80
2017-09-14T07:04:41.496Z,20.80
2017-09-14T07:07:15.191Z,20.80
2017-09-14T07:09:48.905Z,20.80
2017-09-14T07:12:22.440Z,20.80
2017-09-14T07:14:56.208Z,20.80
2017-09-14T07:17:29.660Z,20.80
2017-09-14T07:20:03.146Z,20.80
2017-09-14T07:22:36.869Z,20.80
2017-09-14T07:25:11.360Z,20.80
2017-09-14T07:27:47.017Z,20.70
2017-09-14T07:33:03.193Z,20.80
2017-09-14T07:35:37.009Z,20.80
2017-09-14T07:38:11.645Z,20.80
2017-09-14T07:40:45.456Z,20.80
2017-09-14T07:43:19.274Z,20.80
2017-09-14T07:45:53.053Z,20.80
2017-09-14T07:48:26.885Z,20.70
2017-09-14T07:51:00.637Z,20.70
2017-09-14T07:53:34.274Z,20.70
2017-09-14T07:56:14.876Z,20.80
2017-09-14T07:58:48.634Z,20.80
2017-09-14T08:01:22.762Z,20.80
2017-09-14T08:03:57.271Z,20.70
2017-09-14T08:06:31.266Z,20.70
2017-09-14T08:09:05.078Z,20.70
2017-09-14T08:11:38.934Z,20.60
2017-09-14T08:14:12.866Z,20.70
2017-09-14T08:16:48.138Z,20.60
2017-09-14T08:19:22.550Z,20.60
2017-09-14T08:21:57.144Z,20.60
2017-09-14T08:24:31.050Z,20.60
2017-09-14T08:27:05.261Z,20.60
2017-09-14T08:29:39.205Z,20.60
2017-09-14T08:32:13.417Z,20.60
2017-09-14T08:34:47.013Z,20.60
2017-09-14T08:37:21.642Z,20.60
2017-09-14T08:39:55.609Z,20.50
2017-09-14T08:42:29.557Z,20.60
2017-09-14T08:45:03.998Z,20.60
2017-09-14T08:47:38.032Z,20.50
2017-09-14T08:50:11.889Z,20.60
2017-09-14T08:52:45.573Z,20.60
2017-09-14T08:55:19.306Z,20.60
2017-09-14T08:57:53.101Z,20.60
2017-09-14T09:00:27.862Z,20.60
2017-09-14T09:03:02.365Z,20.60
2017-09-14T09:05:36.670Z,20.60
2017-09-14T09:08:11.293Z,20.60
2017-09-14T09:10:45.568Z,20.60
2017-09-14T09:13:20.133Z,20.50
2017-09-14T09:15:54.577Z,20.50
2017-09-14T09:18:28.476Z,20.50
2017-09-14T09:21:02.201Z,20.50
2017-09-14T09:23:36.106Z,20.50
2017-09-14T09:26:10.515Z,20.40
2017-09-14T09:28:44.884Z,20.40
2017-09-14T09:31:18.557Z,20.40
2017-09-14T09:33:52.692Z,20.40
2017-09-14T09:36:26.528Z,20.40
2017-09-14T09:39:00.145Z,20.40
2017-09-14T09:41:33.848Z,20.40
2017-09-14T09:44:07.790Z,20.40
2017-09-14T09:46:41.579Z,20.40
2017-09-14T09:49:15.403Z,20.40
2017-09-14T09:51:49.849Z,20.50
2017-09-14T09:54:23.949Z,20.40
2017-09-14T09:56:59.308Z,20.50
2017-09-14T09:59:33.441Z,20.40
2017-09-14T10:02:07.267Z,20.50
2017-09-14T10:04:40.942Z,20.50
2017-09-14T10:07:14.679Z,20.50
2017-09-14T10:09:49.160Z,20.50
2017-09-14T10:12:23.169Z,20.50
2017-09-14T10:14:57.009Z,20.50
2017-09-14T10:17:31.626Z,20.50
2017-09-14T10:20:05.701Z,20.50
2017-09-14T10:22:40.438Z,20.50
2017-09-14T10:25:14.378Z,20.50
2017-09-14T10:27:48.318Z,20.40
2017-09-14T10:30:22.977Z,20.40
2017-09-14T10:32:57.085Z,20.40
2017-09-14T10:35:30.870Z,20.40
2017-09-14T10:38:05.622Z,20.40
2017-09-14T10:40:39.774Z,20.40
2017-09-14T10:43:13.470Z,20.40
2017-09-14T10:45:47.347Z,20.40
2017-09-14T10:48:21.211Z,20.40
2017-09-14T10:50:55.009Z,20.40
2017-09-14T10:53:28.855Z,20.40
2017-09-14T10:56:02.529Z,20.40
2017-09-14T10:58:36.541Z,20.40
2017-09-14T11:01:11.032Z,20.40
2017-09-14T11:03:45.131Z,20.40
2017-09-14T11:06:19.006Z,20.40
2017-09-14T11:08:53.341Z,20.20
2017-09-14T11:11:27.349Z,20.20
2017-09-14T11:14:01.776Z,20.20
2017-09-14T11:16:35.655Z,20.10
2017-09-14T11:19:09.362Z,20.20
2017-09-14T11:21:43.211Z,20.10
2017-09-14T11:24:17.018Z,20.20
2017-09-14T11:26:51.301Z,20.10
2017-09-14T11:29:27.784Z,20.10
2017-09-14T11:32:02.538Z,20.10
2017-09-14T11:34:36.875Z,20.10
2017-09-14T11:37:10.718Z,20.00
2017-09-14T11:39:44.473Z,20.10
2017-09-14T11:42:18.232Z,20.10
2017-09-14T11:44:52.375Z,20.10
2017-09-14T11:47:26.964Z,20.30
2017-09-14T11:50:00.989Z,20.30
2017-09-14T11:52:34.676Z,20.40
2017-09-14T11:55:09.282Z,20.60
